sensor_id;sensor_type;location;lat;lon;timestamp;P1;P2;P0
69222;PMS7003;56514;51.816;-0.026;2022-11-20T00:00:23;6.00;6.00;5.50
69222;PMS7003;56514;51.816;-0.026;2022-11-20T00:03:27;5.50;5.50;5.50
69222;PMS7003;56514;51.816;-0.026;2022-11-20T00:06:33;6.00;5.50;4.00
69222;PMS7003;56514;51.816;-0.026;2022-11-20T00:09:42;4.50;4.50;4.00
69222;PMS7003;56514;51.816;-0.026;2022-11-20T00:12:51;3.75;3.75;3.50
69222;PMS7003;56514;51.816;-0.026;2022-11-20T00:16:01;4.00;4.00;4.00
69222;PMS7003;56514;51.816;-0.026;2022-11-20T00:19:11;3.00;3.00;3.00
69222;PMS7003;56514;51.816;-0.026;2022-11-20T00:22:20;4.00;4.00;4.00
69222;PMS7003;56514;51.816;-0.026;2022-11-20T00:25:30;5.50;5.50;4.25
69222;PMS7003;56514;51.816;-0.026;2022-11-20T00:28:40;3.25;3.25;3.00
69222;PMS7003;56514;51.816;-0.026;2022-11-20T00:31:50;3.00;3.00;3.00
69222;PMS7003;56514;51.816;-0.026;2022-11-20T00:34:59;3.00;3.00;3.00
69222;PMS7003;56514;51.816;-0.026;2022-11-20T00:38:07;3.50;3.50;3.50
69222;PMS7003;56514;51.816;-0.026;2022-11-20T00:41:16;1.00;1.00;1.00
69222;PMS7003;56514;51.816;-0.026;2022-11-20T00:44:25;3.00;3.00;1.00
69222;PMS7003;56514;51.816;-0.026;2022-11-20T00:47:37;6.00;6.00;3.50
69222;PMS7003;56514;51.816;-0.026;2022-11-20T00:50:22;6.00;6.00;6.00
69222;PMS7003;56514;51.816;-0.026;2022-11-20T00:53:07;5.75;5.75;5.00
69222;PMS7003;56514;51.816;-0.026;2022-11-20T00:55:56;7.00;7.00;6.00
69222;PMS7003;56514;51.816;-0.026;2022-11-20T00:58:42;6.00;6.00;6.00
69222;PMS7003;56514;51.816;-0.026;2022-11-20T01:01:33;6.25;6.25;6.25
69222;PMS7003;56514;51.816;-0.026;2022-11-20T01:04:17;7.50;7.50;6.50
69222;PMS7003;56514;51.816;-0.026;2022-11-20T01:07:02;6.25;6.25;6.00
69222;PMS7003;56514;51.816;-0.026;2022-11-20T01:09:47;6.75;6.00;6.00
69222;PMS7003;56514;51.816;-0.026;2022-11-20T01:12:32;4.00;4.00;4.00
69222;PMS7003;56514;51.816;-0.026;2022-11-20T01:15:17;7.00;6.00;4.50
69222;PMS7003;56514;51.816;-0.026;2022-11-20T01:18:02;7.00;7.00;6.50
69222;PMS7003;56514;51.816;-0.026;2022-11-20T01:20:47;9.75;8.00;6.75
69222;PMS7003;56514;51.816;-0.026;2022-11-20T01:23:33;9.25;9.25;7.00
69222;PMS7003;56514;51.816;-0.026;2022-11-20T01:26:21;7.50;7.50;6.75
69222;PMS7003;56514;51.816;-0.026;2022-11-20T01:29:18;5.00;5.00;4.50
69222;PMS7003;56514;51.816;-0.026;2022-11-20T01:32:04;9.50;9.50;9.00
69222;PMS7003;56514;51.816;-0.026;2022-11-20T01:34:49;10.50;7.50;7.00
69222;PMS7003;56514;51.816;-0.026;2022-11-20T01:37:34;6.75;6.75;6.50
69222;PMS7003;56514;51.816;-0.026;2022-11-20T01:40:19;5.75;5.75;5.75
69222;PMS7003;56514;51.816;-0.026;2022-11-20T01:43:37;5.50;5.50;4.50
69222;PMS7003;56514;51.816;-0.026;2022-11-20T01:46:15;9.25;9.00;8.00
69222;PMS7003;56514;51.816;-0.026;2022-11-20T01:49:04;5.50;5.50;5.50
69222;PMS7003;56514;51.816;-0.026;2022-11-20T01:52:01;7.50;7.50;6.25
69222;PMS7003;56514;51.816;-0.026;2022-11-20T01:57:46;5.00;5.00;4.00
69222;PMS7003;56514;51.816;-0.026;2022-11-20T02:00:33;6.75;6.75;6.25
69222;PMS7003;56514;51.816;-0.026;2022-11-20T02:03:18;7.00;7.00;5.00
69222;PMS7003;56514;51.816;-0.026;2022-11-20T02:06:07;6.50;6.50;6.00
69222;PMS7003;56514;51.816;-0.026;2022-11-20T02:08:59;9.25;8.00;7.00
69222;PMS7003;56514;51.816;-0.026;2022-11-20T02:11:43;8.00;8.00;6.00
69222;PMS7003;56514;51.816;-0.026;2022-11-20T02:14:28;6.25;6.25;6.00
69222;PMS7003;56514;51.816;-0.026;2022-11-20T02:17:14;9.00;7.50;7.50
69222;PMS7003;56514;51.816;-0.026;2022-11-20T02:19:58;9.00;9.00;6.00
69222;PMS7003;56514;51.816;-0.026;2022-11-20T02:23:05;5.50;5.50;4.50
69222;PMS7003;56514;51.816;-0.026;2022-11-20T02:25:52;5.25;5.25;5.00
69222;PMS7003;56514;51.816;-0.026;2022-11-20T02:28:38;9.75;9.75;8.50
69222;PMS7003;56514;51.816;-0.026;2022-11-20T02:31:24;6.00;6.00;4.00
69222;PMS7003;56514;51.816;-0.026;2022-11-20T02:34:09;7.50;7.50;7.25
69222;PMS7003;56514;51.816;-0.026;2022-11-20T02:36:54;5.50;5.50;5.50
69222;PMS7003;56514;51.816;-0.026;2022-11-20T02:39:40;6.50;6.50;6.00
69222;PMS7003;56514;51.816;-0.026;2022-11-20T02:42:26;9.00;9.00;7.00
69222;PMS7003;56514;51.816;-0.026;2022-11-20T02:45:11;7.25;7.25;5.75
69222;PMS7003;56514;51.816;-0.026;2022-11-20T02:47:56;9.25;9.25;6.75
69222;PMS7003;56514;51.816;-0.026;2022-11-20T02:50:41;4.50;3.75;3.25
69222;PMS7003;56514;51.816;-0.026;2022-11-20T02:53:27;5.50;5.50;3.75
69222;PMS7003;56514;51.816;-0.026;2022-11-20T02:56:12;5.50;5.50;5.50
69222;PMS7003;56514;51.816;-0.026;2022-11-20T02:58:56;6.50;4.50;4.00
69222;PMS7003;56514;51.816;-0.026;2022-11-20T03:01:41;7.00;7.00;6.00
69222;PMS7003;56514;51.816;-0.026;2022-11-20T03:04:26;6.50;6.50;6.50
69222;PMS7003;56514;51.816;-0.026;2022-11-20T03:07:11;8.50;8.50;6.75
69222;PMS7003;56514;51.816;-0.026;2022-11-20T03:09:56;5.00;5.00;5.00
69222;PMS7003;56514;51.816;-0.026;2022-11-20T03:12:40;6.50;6.50;6.00
69222;PMS7003;56514;51.816;-0.026;2022-11-20T03:15:25;7.00;7.00;6.25
69222;PMS7003;56514;51.816;-0.026;2022-11-20T03:18:11;8.75;8.75;6.00
69222;PMS7003;56514;51.816;-0.026;2022-11-20T03:20:58;7.00;7.00;6.50
69222;PMS7003;56514;51.816;-0.026;2022-11-20T03:23:44;8.50;6.75;6.75
69222;PMS7003;56514;51.816;-0.026;2022-11-20T03:26:29;6.25;6.25;6.00
69222;PMS7003;56514;51.816;-0.026;2022-11-20T03:29:14;4.50;4.50;4.50
69222;PMS7003;56514;51.816;-0.026;2022-11-20T03:31:59;6.75;6.75;6.75
69222;PMS7003;56514;51.816;-0.026;2022-11-20T03:34:44;7.50;7.50;6.25
69222;PMS7003;56514;51.816;-0.026;2022-11-20T03:37:29;7.25;7.25;7.00
69222;PMS7003;56514;51.816;-0.026;2022-11-20T03:40:14;6.25;6.25;5.00
69222;PMS7003;56514;51.816;-0.026;2022-11-20T03:42:59;7.00;7.00;6.50
69222;PMS7003;56514;51.816;-0.026;2022-11-20T03:45:44;6.75;6.75;6.00
69222;PMS7003;56514;51.816;-0.026;2022-11-20T03:48:29;6.00;6.00;5.50
69222;PMS7003;56514;51.816;-0.026;2022-11-20T03:51:15;3.25;3.25;2.50
69222;PMS7003;56514;51.816;-0.026;2022-11-20T03:54:03;4.50;4.50;4.00
69222;PMS7003;56514;51.816;-0.026;2022-11-20T03:56:50;4.50;4.50;4.00
69222;PMS7003;56514;51.816;-0.026;2022-11-20T03:59:35;6.00;6.00;6.00
69222;PMS7003;56514;51.816;-0.026;2022-11-20T04:02:20;3.00;3.00;1.00
69222;PMS7003;56514;51.816;-0.026;2022-11-20T04:05:05;5.50;5.50;5.50
69222;PMS7003;56514;51.816;-0.026;2022-11-20T04:07:50;8.25;8.25;6.00
69222;PMS7003;56514;51.816;-0.026;2022-11-20T04:10:35;7.00;7.00;6.00
69222;PMS7003;56514;51.816;-0.026;2022-11-20T04:13:20;6.25;6.25;4.50
69222;PMS7003;56514;51.816;-0.026;2022-11-20T04:16:05;8.50;8.50;7.00
69222;PMS7003;56514;51.816;-0.026;2022-11-20T04:18:55;6.50;6.50;6.00
69222;PMS7003;56514;51.816;-0.026;2022-11-20T04:21:42;6.75;5.50;5.00
69222;PMS7003;56514;51.816;-0.026;2022-11-20T04:24:28;6.50;6.50;6.00
69222;PMS7003;56514;51.816;-0.026;2022-11-20T04:27:13;8.00;8.00;6.50
69222;PMS7003;56514;51.816;-0.026;2022-11-20T04:29:57;6.00;6.00;5.50
69222;PMS7003;56514;51.816;-0.026;2022-11-20T04:32:45;3.75;3.75;3.00
69222;PMS7003;56514;51.816;-0.026;2022-11-20T04:35:36;4.00;4.00;4.00
69222;PMS7003;56514;51.816;-0.026;2022-11-20T04:38:22;5.00;5.00;4.00
69222;PMS7003;56514;51.816;-0.026;2022-11-20T04:41:08;4.00;4.00;3.75
69222;PMS7003;56514;51.816;-0.026;2022-11-20T04:43:59;5.50;5.50;4.50
69222;PMS7003;56514;51.816;-0.026;2022-11-20T04:46:47;6.25;6.25;6.25
69222;PMS7003;56514;51.816;-0.026;2022-11-20T04:49:32;3.25;3.25;3.25
69222;PMS7003;56514;51.816;-0.026;2022-11-20T04:52:18;6.50;4.50;3.00
69222;PMS7003;56514;51.816;-0.026;2022-11-20T04:55:03;4.00;4.00;4.00
69222;PMS7003;56514;51.816;-0.026;2022-11-20T04:57:52;3.25;3.25;3.25
69222;PMS7003;56514;51.816;-0.026;2022-11-20T05:00:37;2.50;2.50;1.00
69222;PMS7003;56514;51.816;-0.026;2022-11-20T05:03:21;3.50;3.50;3.00
69222;PMS7003;56514;51.816;-0.026;2022-11-20T05:06:06;1.00;1.00;1.00
69222;PMS7003;56514;51.816;-0.026;2022-11-20T05:08:52;1.00;1.00;1.00
69222;PMS7003;56514;51.816;-0.026;2022-11-20T05:11:37;3.75;3.25;3.25
69222;PMS7003;56514;51.816;-0.026;2022-11-20T05:14:23;3.00;3.00;3.00
69222;PMS7003;56514;51.816;-0.026;2022-11-20T05:17:09;4.00;3.75;3.00
69222;PMS7003;56514;51.816;-0.026;2022-11-20T05:19:55;4.00;3.00;2.50
69222;PMS7003;56514;51.816;-0.026;2022-11-20T05:22:40;3.00;3.00;3.00
69222;PMS7003;56514;51.816;-0.026;2022-11-20T05:25:25;1.00;1.00;1.00
69222;PMS7003;56514;51.816;-0.026;2022-11-20T05:28:09;3.00;3.00;3.00
69222;PMS7003;56514;51.816;-0.026;2022-11-20T05:30:54;1.00;1.00;1.00
69222;PMS7003;56514;51.816;-0.026;2022-11-20T05:33:40;1.00;1.00;1.00
69222;PMS7003;56514;51.816;-0.026;2022-11-20T05:36:26;3.00;3.00;3.00
69222;PMS7003;56514;51.816;-0.026;2022-11-20T05:39:11;0.25;0.25;0.25
69222;PMS7003;56514;51.816;-0.026;2022-11-20T05:41:56;2.75;2.75;2.75
69222;PMS7003;56514;51.816;-0.026;2022-11-20T05:45:00;3.25;1.00;1.00
69222;PMS7003;56514;51.816;-0.026;2022-11-20T05:47:47;2.50;2.50;1.00
69222;PMS7003;56514;51.816;-0.026;2022-11-20T05:50:32;1.00;1.00;1.00
69222;PMS7003;56514;51.816;-0.026;2022-11-20T05:53:17;1.50;1.50;1.50
69222;PMS7003;56514;51.816;-0.026;2022-11-20T05:56:07;1.00;1.00;1.00
69222;PMS7003;56514;51.816;-0.026;2022-11-20T05:58:55;3.50;1.00;1.00
69222;PMS7003;56514;51.816;-0.026;2022-11-20T06:01:40;1.00;1.00;1.00
69222;PMS7003;56514;51.816;-0.026;2022-11-20T06:04:25;2.00;2.00;1.00
69222;PMS7003;56514;51.816;-0.026;2022-11-20T06:07:11;1.00;1.00;0.75
69222;PMS7003;56514;51.816;-0.026;2022-11-20T06:09:55;1.50;1.50;1.00
69222;PMS7003;56514;51.816;-0.026;2022-11-20T06:12:40;3.00;3.00;3.00
69222;PMS7003;56514;51.816;-0.026;2022-11-20T06:15:25;0.25;0.25;0.25
69222;PMS7003;56514;51.816;-0.026;2022-11-20T06:18:09;1.00;1.00;1.00
69222;PMS7003;56514;51.816;-0.026;2022-11-20T06:21:04;2.25;2.25;1.50
69222;PMS7003;56514;51.816;-0.026;2022-11-20T06:23:52;1.00;1.00;0.50
69222;PMS7003;56514;51.816;-0.026;2022-11-20T06:26:37;2.50;2.50;2.50
69222;PMS7003;56514;51.816;-0.026;2022-11-20T06:29:22;1.00;1.00;1.00
69222;PMS7003;56514;51.816;-0.026;2022-11-20T06:32:07;0.00;0.00;0.00
69222;PMS7003;56514;51.816;-0.026;2022-11-20T06:34:52;1.00;1.00;1.00
69222;PMS7003;56514;51.816;-0.026;2022-11-20T06:37:37;2.50;2.50;1.00
69222;PMS7003;56514;51.816;-0.026;2022-11-20T06:40:21;1.00;1.00;1.00
69222;PMS7003;56514;51.816;-0.026;2022-11-20T06:43:06;0.50;0.50;0.50
69222;PMS7003;56514;51.816;-0.026;2022-11-20T06:45:55;1.00;1.00;0.75
69222;PMS7003;56514;51.816;-0.026;2022-11-20T06:48:40;3.00;3.00;1.50
69222;PMS7003;56514;51.816;-0.026;2022-11-20T06:51:25;1.00;1.00;1.00
69222;PMS7003;56514;51.816;-0.026;2022-11-20T06:54:10;1.00;1.00;0.50
69222;PMS7003;56514;51.816;-0.026;2022-11-20T06:56:55;0.00;0.00;0.00
69222;PMS7003;56514;51.816;-0.026;2022-11-20T06:59:40;1.00;1.00;1.00
69222;PMS7003;56514;51.816;-0.026;2022-11-20T07:02:24;1.50;1.50;1.50
69222;PMS7003;56514;51.816;-0.026;2022-11-20T07:05:09;5.00;5.00;3.50
69222;PMS7003;56514;51.816;-0.026;2022-11-20T07:07:55;2.50;2.50;1.50
69222;PMS7003;56514;51.816;-0.026;2022-11-20T07:10:43;1.00;1.00;1.00
69222;PMS7003;56514;51.816;-0.026;2022-11-20T07:13:28;0.25;0.25;0.25
69222;PMS7003;56514;51.816;-0.026;2022-11-20T07:16:13;0.25;0.25;0.25
69222;PMS7003;56514;51.816;-0.026;2022-11-20T07:18:58;1.50;1.50;1.50
69222;PMS7003;56514;51.816;-0.026;2022-11-20T07:21:43;0.00;0.00;0.00
69222;PMS7003;56514;51.816;-0.026;2022-11-20T07:24:27;0.00;0.00;0.00
69222;PMS7003;56514;51.816;-0.026;2022-11-20T07:27:12;0.00;0.00;0.00
69222;PMS7003;56514;51.816;-0.026;2022-11-20T07:29:57;0.00;0.00;0.00
69222;PMS7003;56514;51.816;-0.026;2022-11-20T07:32:41;2.00;2.00;2.00
69222;PMS7003;56514;51.816;-0.026;2022-11-20T07:35:27;0.50;0.50;0.50
69222;PMS7003;56514;51.816;-0.026;2022-11-20T07:38:12;0.00;0.00;0.00
69222;PMS7003;56514;51.816;-0.026;2022-11-20T07:40:57;0.75;0.75;0.00
69222;PMS7003;56514;51.816;-0.026;2022-11-20T07:43:42;0.00;0.00;0.00
69222;PMS7003;56514;51.816;-0.026;2022-11-20T07:46:27;0.00;0.00;0.00
69222;PMS7003;56514;51.816;-0.026;2022-11-20T07:49:12;0.50;0.50;0.00
69222;PMS7003;56514;51.816;-0.026;2022-11-20T07:51:56;0.25;0.25;0.00
69222;PMS7003;56514;51.816;-0.026;2022-11-20T07:54:41;1.00;1.00;1.00
69222;PMS7003;56514;51.816;-0.026;2022-11-20T07:57:26;0.00;0.00;0.00
69222;PMS7003;56514;51.816;-0.026;2022-11-20T08:00:11;0.00;0.00;0.00
69222;PMS7003;56514;51.816;-0.026;2022-11-20T08:02:56;0.00;0.00;0.00
69222;PMS7003;56514;51.816;-0.026;2022-11-20T08:05:41;0.00;0.00;0.00
69222;PMS7003;56514;51.816;-0.026;2022-11-20T08:08:26;0.75;0.75;0.75
69222;PMS7003;56514;51.816;-0.026;2022-11-20T08:11:13;1.00;1.00;1.00
69222;PMS7003;56514;51.816;-0.026;2022-11-20T08:14:16;1.00;1.00;1.00
69222;PMS7003;56514;51.816;-0.026;2022-11-20T08:17:01;3.00;3.00;1.50
69222;PMS7003;56514;51.816;-0.026;2022-11-20T08:19:46;3.00;3.00;1.00
69222;PMS7003;56514;51.816;-0.026;2022-11-20T08:22:32;3.00;3.00;2.50
69222;PMS7003;56514;51.816;-0.026;2022-11-20T08:25:16;3.00;3.00;2.50
69222;PMS7003;56514;51.816;-0.026;2022-11-20T08:28:03;3.00;3.00;3.00
69222;PMS7003;56514;51.816;-0.026;2022-11-20T08:30:49;2.75;1.00;1.00
69222;PMS7003;56514;51.816;-0.026;2022-11-20T08:33:34;1.00;1.00;1.00
69222;PMS7003;56514;51.816;-0.026;2022-11-20T08:36:19;0.50;0.50;0.50
69222;PMS7003;56514;51.816;-0.026;2022-11-20T08:39:05;2.50;2.50;2.50
69222;PMS7003;56514;51.816;-0.026;2022-11-20T08:41:50;3.50;3.50;3.50
69222;PMS7003;56514;51.816;-0.026;2022-11-20T08:44:38;3.00;3.00;2.50
69222;PMS7003;56514;51.816;-0.026;2022-11-20T08:47:23;0.00;0.00;0.00
69222;PMS7003;56514;51.816;-0.026;2022-11-20T08:50:09;0.00;0.00;0.00
69222;PMS7003;56514;51.816;-0.026;2022-11-20T08:53:01;0.75;0.75;0.75
69222;PMS7003;56514;51.816;-0.026;2022-11-20T08:55:47;3.00;3.00;3.00
69222;PMS7003;56514;51.816;-0.026;2022-11-20T08:58:35;1.00;1.00;1.00
69222;PMS7003;56514;51.816;-0.026;2022-11-20T09:01:20;0.50;0.50;0.25
69222;PMS7003;56514;51.816;-0.026;2022-11-20T09:04:06;1.00;1.00;1.00
69222;PMS7003;56514;51.816;-0.026;2022-11-20T09:06:51;1.00;1.00;1.00
69222;PMS7003;56514;51.816;-0.026;2022-11-20T09:09:36;1.00;1.00;1.00
69222;PMS7003;56514;51.816;-0.026;2022-11-20T09:12:21;1.00;1.00;0.50
69222;PMS7003;56514;51.816;-0.026;2022-11-20T09:15:05;1.00;1.00;1.00
69222;PMS7003;56514;51.816;-0.026;2022-11-20T09:17:51;0.50;0.50;0.00
69222;PMS7003;56514;51.816;-0.026;2022-11-20T09:20:39;1.00;1.00;0.00
69222;PMS7003;56514;51.816;-0.026;2022-11-20T09:23:25;1.00;1.00;1.00
69222;PMS7003;56514;51.816;-0.026;2022-11-20T09:26:12;0.25;0.25;0.25
69222;PMS7003;56514;51.816;-0.026;2022-11-20T09:28:58;0.00;0.00;0.00
69222;PMS7003;56514;51.816;-0.026;2022-11-20T09:31:42;1.00;1.00;1.00
69222;PMS7003;56514;51.816;-0.026;2022-11-20T09:34:27;0.25;0.25;0.25
69222;PMS7003;56514;51.816;-0.026;2022-11-20T09:37:12;0.00;0.00;0.00
69222;PMS7003;56514;51.816;-0.026;2022-11-20T09:39:57;1.00;1.00;1.00
69222;PMS7003;56514;51.816;-0.026;2022-11-20T09:54:54;0.00;0.00;0.00
69222;PMS7003;56514;51.816;-0.026;2022-11-20T09:57:40;0.75;0.75;0.75
69222;PMS7003;56514;51.816;-0.026;2022-11-20T10:00:34;0.00;0.00;0.00
69222;PMS7003;56514;51.816;-0.026;2022-11-20T10:03:26;0.00;0.00;0.00
69222;PMS7003;56514;51.816;-0.026;2022-11-20T10:09:40;1.50;1.50;1.00
69222;PMS7003;56514;51.816;-0.026;2022-11-20T10:19:23;0.00;0.00;0.00
69222;PMS7003;56514;51.816;-0.026;2022-11-20T10:30:48;0.00;0.00;0.00
69222;PMS7003;56514;51.816;-0.026;2022-11-20T10:33:42;0.00;0.00;0.00
69222;PMS7003;56514;51.816;-0.026;2022-11-20T10:36:37;0.00;0.00;0.00
69222;PMS7003;56514;51.816;-0.026;2022-11-20T10:39:35;0.75;0.75;0.75
69222;PMS7003;56514;51.816;-0.026;2022-11-20T10:45:36;0.00;0.00;0.00
69222;PMS7003;56514;51.816;-0.026;2022-11-20T10:48:32;0.00;0.00;0.00
69222;PMS7003;56514;51.816;-0.026;2022-11-20T10:54:43;0.00;0.00;0.00
69222;PMS7003;56514;51.816;-0.026;2022-11-20T11:00:46;0.50;0.50;0.50
69222;PMS7003;56514;51.816;-0.026;2022-11-20T11:03:31;1.00;1.00;1.00
69222;PMS7003;56514;51.816;-0.026;2022-11-20T11:06:21;0.00;0.00;0.00
69222;PMS7003;56514;51.816;-0.026;2022-11-20T11:09:17;0.00;0.00;0.00
69222;PMS7003;56514;51.816;-0.026;2022-11-20T11:12:09;0.75;0.75;0.75
69222;PMS7003;56514;51.816;-0.026;2022-11-20T11:14:55;1.00;0.00;0.00
69222;PMS7003;56514;51.816;-0.026;2022-11-20T11:17:48;0.00;0.00;0.00
69222;PMS7003;56514;51.816;-0.026;2022-11-20T11:20:33;1.00;0.00;0.00
69222;PMS7003;56514;51.816;-0.026;2022-11-20T11:26:19;0.00;0.00;0.00
69222;PMS7003;56514;51.816;-0.026;2022-11-20T11:29:15;0.00;0.00;0.00
69222;PMS7003;56514;51.816;-0.026;2022-11-20T11:32:07;0.00;0.00;0.00
69222;PMS7003;56514;51.816;-0.026;2022-11-20T11:34:59;0.00;0.00;0.00
69222;PMS7003;56514;51.816;-0.026;2022-11-20T11:38:06;0.00;0.00;0.00
69222;PMS7003;56514;51.816;-0.026;2022-11-20T11:40:56;0.00;0.00;0.00
69222;PMS7003;56514;51.816;-0.026;2022-11-20T11:43:49;0.00;0.00;0.00
69222;PMS7003;56514;51.816;-0.026;2022-11-20T11:46:55;0.00;0.00;0.00
69222;PMS7003;56514;51.816;-0.026;2022-11-20T11:49:42;0.00;0.00;0.00
69222;PMS7003;56514;51.816;-0.026;2022-11-20T11:52:26;0.00;0.00;0.00
69222;PMS7003;56514;51.816;-0.026;2022-11-20T11:55:24;0.50;0.50;0.50
69222;PMS7003;56514;51.816;-0.026;2022-11-20T12:01:47;0.00;0.00;0.00
69222;PMS7003;56514;51.816;-0.026;2022-11-20T12:04:40;0.00;0.00;0.00
69222;PMS7003;56514;51.816;-0.026;2022-11-20T12:07:54;0.75;0.75;0.00
69222;PMS7003;56514;51.816;-0.026;2022-11-20T12:10:46;0.00;0.00;0.00
69222;PMS7003;56514;51.816;-0.026;2022-11-20T12:13:45;0.00;0.00;0.00
69222;PMS7003;56514;51.816;-0.026;2022-11-20T12:16:37;0.00;0.00;0.00
69222;PMS7003;56514;51.816;-0.026;2022-11-20T12:19:24;0.75;0.75;0.75
69222;PMS7003;56514;51.816;-0.026;2022-11-20T12:43:20;0.00;0.00;0.00
69222;PMS7003;56514;51.816;-0.026;2022-11-20T12:52:40;0.75;0.75;0.75
69222;PMS7003;56514;51.816;-0.026;2022-11-20T13:01:50;0.00;0.00;0.00
69222;PMS7003;56514;51.816;-0.026;2022-11-20T13:04:54;0.00;0.00;0.00
69222;PMS7003;56514;51.816;-0.026;2022-11-20T13:07:51;0.00;0.00;0.00
69222;PMS7003;56514;51.816;-0.026;2022-11-20T13:19:59;1.00;0.00;0.00
69222;PMS7003;56514;51.816;-0.026;2022-11-20T13:22:45;0.25;0.25;0.00
69222;PMS7003;56514;51.816;-0.026;2022-11-20T13:25:39;0.50;0.50;0.00
69222;PMS7003;56514;51.816;-0.026;2022-11-20T13:28:28;0.00;0.00;0.00
69222;PMS7003;56514;51.816;-0.026;2022-11-20T13:31:26;0.00;0.00;0.00
69222;PMS7003;56514;51.816;-0.026;2022-11-20T13:34:24;0.00;0.00;0.00
69222;PMS7003;56514;51.816;-0.026;2022-11-20T13:37:23;0.00;0.00;0.00
69222;PMS7003;56514;51.816;-0.026;2022-11-20T13:40:20;0.00;0.00;0.00
69222;PMS7003;56514;51.816;-0.026;2022-11-20T13:43:10;0.00;0.00;0.00
69222;PMS7003;56514;51.816;-0.026;2022-11-20T13:46:04;0.00;0.00;0.00
69222;PMS7003;56514;51.816;-0.026;2022-11-20T13:48:51;0.00;0.00;0.00
69222;PMS7003;56514;51.816;-0.026;2022-11-20T13:51:41;0.00;0.00;0.00
69222;PMS7003;56514;51.816;-0.026;2022-11-20T13:54:44;0.00;0.00;0.00
69222;PMS7003;56514;51.816;-0.026;2022-11-20T13:57:54;0.00;0.00;0.00
69222;PMS7003;56514;51.816;-0.026;2022-11-20T14:01:08;0.00;0.00;0.00
69222;PMS7003;56514;51.816;-0.026;2022-11-20T14:03:58;0.00;0.00;0.00
69222;PMS7003;56514;51.816;-0.026;2022-11-20T14:06:44;0.75;0.00;0.00
69222;PMS7003;56514;51.816;-0.026;2022-11-20T14:09:33;0.00;0.00;0.00
69222;PMS7003;56514;51.816;-0.026;2022-11-20T14:12:19;0.00;0.00;0.00
69222;PMS7003;56514;51.816;-0.026;2022-11-20T14:15:23;1.00;1.00;0.00
69222;PMS7003;56514;51.816;-0.026;2022-11-20T14:18:14;0.00;0.00;0.00
69222;PMS7003;56514;51.816;-0.026;2022-11-20T14:21:04;1.00;0.00;0.00
69222;PMS7003;56514;51.816;-0.026;2022-11-20T14:23:51;1.00;1.00;0.75
69222;PMS7003;56514;51.816;-0.026;2022-11-20T14:26:41;0.00;0.00;0.00
69222;PMS7003;56514;51.816;-0.026;2022-11-20T14:29:28;0.50;0.50;0.50
69222;PMS7003;56514;51.816;-0.026;2022-11-20T14:32:20;0.00;0.00;0.00
69222;PMS7003;56514;51.816;-0.026;2022-11-20T14:35:14;0.00;0.00;0.00
69222;PMS7003;56514;51.816;-0.026;2022-11-20T14:38:08;1.00;1.00;1.00
69222;PMS7003;56514;51.816;-0.026;2022-11-20T14:41:07;1.00;1.00;1.00
69222;PMS7003;56514;51.816;-0.026;2022-11-20T14:43:55;0.75;0.75;0.75
69222;PMS7003;56514;51.816;-0.026;2022-11-20T14:46:41;1.00;1.00;1.00
69222;PMS7003;56514;51.816;-0.026;2022-11-20T14:49:26;0.75;0.75;0.25
69222;PMS7003;56514;51.816;-0.026;2022-11-20T14:52:19;0.00;0.00;0.00
69222;PMS7003;56514;51.816;-0.026;2022-11-20T14:55:07;0.25;0.25;0.00
69222;PMS7003;56514;51.816;-0.026;2022-11-20T14:58:06;0.25;0.25;0.25
69222;PMS7003;56514;51.816;-0.026;2022-11-20T15:01:06;0.50;0.50;0.50
69222;PMS7003;56514;51.816;-0.026;2022-11-20T15:03:58;0.00;0.00;0.00
69222;PMS7003;56514;51.816;-0.026;2022-11-20T15:06:52;0.00;0.00;0.00
69222;PMS7003;56514;51.816;-0.026;2022-11-20T15:09:39;1.00;1.00;0.50
69222;PMS7003;56514;51.816;-0.026;2022-11-20T15:12:24;0.75;0.75;0.75
69222;PMS7003;56514;51.816;-0.026;2022-11-20T15:15:10;2.00;2.00;2.00
69222;PMS7003;56514;51.816;-0.026;2022-11-20T15:17:57;2.00;2.00;2.00
69222;PMS7003;56514;51.816;-0.026;2022-11-20T15:20:43;4.00;2.00;1.00
69222;PMS7003;56514;51.816;-0.026;2022-11-20T15:23:28;1.00;1.00;0.25
69222;PMS7003;56514;51.816;-0.026;2022-11-20T15:26:14;4.75;3.00;2.00
69222;PMS7003;56514;51.816;-0.026;2022-11-20T15:29:04;2.50;2.50;2.00
69222;PMS7003;56514;51.816;-0.026;2022-11-20T15:31:49;4.00;4.00;3.50
69222;PMS7003;56514;51.816;-0.026;2022-11-20T15:34:35;0.00;0.00;0.00
69222;PMS7003;56514;51.816;-0.026;2022-11-20T15:37:20;1.00;1.00;0.00
69222;PMS7003;56514;51.816;-0.026;2022-11-20T15:40:05;0.25;0.00;0.00
69222;PMS7003;56514;51.816;-0.026;2022-11-20T15:42:53;0.00;0.00;0.00
69222;PMS7003;56514;51.816;-0.026;2022-11-20T15:45:51;0.00;0.00;0.00
69222;PMS7003;56514;51.816;-0.026;2022-11-20T15:48:40;0.00;0.00;0.00
69222;PMS7003;56514;51.816;-0.026;2022-11-20T15:51:28;0.00;0.00;0.00
69222;PMS7003;56514;51.816;-0.026;2022-11-20T15:54:19;0.00;0.00;0.00
69222;PMS7003;56514;51.816;-0.026;2022-11-20T15:57:05;0.00;0.00;0.00
69222;PMS7003;56514;51.816;-0.026;2022-11-20T15:59:50;0.00;0.00;0.00
69222;PMS7003;56514;51.816;-0.026;2022-11-20T16:02:35;0.00;0.00;0.00
69222;PMS7003;56514;51.816;-0.026;2022-11-20T16:05:20;3.00;3.00;3.00
69222;PMS7003;56514;51.816;-0.026;2022-11-20T16:08:07;4.00;4.00;3.75
69222;PMS7003;56514;51.816;-0.026;2022-11-20T16:10:52;2.50;2.50;2.50
69222;PMS7003;56514;51.816;-0.026;2022-11-20T16:13:37;2.00;2.00;2.00
69222;PMS7003;56514;51.816;-0.026;2022-11-20T16:16:40;1.00;1.00;1.00
69222;PMS7003;56514;51.816;-0.026;2022-11-20T16:19:27;2.00;2.00;1.00
69222;PMS7003;56514;51.816;-0.026;2022-11-20T16:22:12;2.50;2.50;1.00
69222;PMS7003;56514;51.816;-0.026;2022-11-20T16:24:57;0.00;0.00;0.00
69222;PMS7003;56514;51.816;-0.026;2022-11-20T16:27:42;0.00;0.00;0.00
69222;PMS7003;56514;51.816;-0.026;2022-11-20T16:30:26;0.00;0.00;0.00
69222;PMS7003;56514;51.816;-0.026;2022-11-20T16:33:13;0.00;0.00;0.00
69222;PMS7003;56514;51.816;-0.026;2022-11-20T16:36:05;0.00;0.00;0.00
69222;PMS7003;56514;51.816;-0.026;2022-11-20T16:38:52;0.00;0.00;0.00
69222;PMS7003;56514;51.816;-0.026;2022-11-20T16:41:38;0.00;0.00;0.00
69222;PMS7003;56514;51.816;-0.026;2022-11-20T16:44:23;0.00;0.00;0.00
69222;PMS7003;56514;51.816;-0.026;2022-11-20T16:47:08;0.00;0.00;0.00
69222;PMS7003;56514;51.816;-0.026;2022-11-20T16:49:53;0.00;0.00;0.00
69222;PMS7003;56514;51.816;-0.026;2022-11-20T16:52:38;0.00;0.00;0.00
69222;PMS7003;56514;51.816;-0.026;2022-11-20T16:55:22;0.00;0.00;0.00
69222;PMS7003;56514;51.816;-0.026;2022-11-20T16:58:07;0.00;0.00;0.00
69222;PMS7003;56514;51.816;-0.026;2022-11-20T17:00:53;2.00;2.00;2.00
69222;PMS7003;56514;51.816;-0.026;2022-11-20T17:03:37;31.75;30.00;23.50
69222;PMS7003;56514;51.816;-0.026;2022-11-20T17:06:25;49.00;48.00;34.00
69222;PMS7003;56514;51.816;-0.026;2022-11-20T17:09:11;39.67;36.67;29.33
69222;PMS7003;56514;51.816;-0.026;2022-11-20T17:11:57;18.75;18.75;15.25
69222;PMS7003;56514;51.816;-0.026;2022-11-20T17:14:42;11.50;11.50;9.00
69222;PMS7003;56514;51.816;-0.026;2022-11-20T17:17:26;9.00;9.00;7.00
69222;PMS7003;56514;51.816;-0.026;2022-11-20T17:20:11;12.00;11.00;9.75
69222;PMS7003;56514;51.816;-0.026;2022-11-20T17:22:57;13.00;12.00;10.00
69222;PMS7003;56514;51.816;-0.026;2022-11-20T17:25:41;6.50;6.50;6.50
69222;PMS7003;56514;51.816;-0.026;2022-11-20T17:28:26;3.50;3.50;2.50
69222;PMS7003;56514;51.816;-0.026;2022-11-20T17:31:12;3.25;3.25;3.25
69222;PMS7003;56514;51.816;-0.026;2022-11-20T17:33:59;4.00;4.00;3.75
69222;PMS7003;56514;51.816;-0.026;2022-11-20T17:36:44;1.00;1.00;1.00
69222;PMS7003;56514;51.816;-0.026;2022-11-20T17:39:33;0.25;0.25;0.25
69222;PMS7003;56514;51.816;-0.026;2022-11-20T17:42:18;1.00;1.00;1.00
69222;PMS7003;56514;51.816;-0.026;2022-11-20T17:45:12;0.00;0.00;0.00